sensor_id;sensor_type;location;lat;lon;timestamp;P1;durP1;ratioP1;P2;durP2;ratioP2
7969;SDS011;4030;52.362;9.206;2022-07-06T00:00:45;1.60;;;0.63;;
7969;SDS011;4030;52.362;9.206;2022-07-06T00:03:11;1.45;;;0.80;;
7969;SDS011;4030;52.362;9.206;2022-07-06T00:05:37;1.60;;;0.85;;
7969;SDS011;4030;52.362;9.206;2022-07-06T00:08:04;1.08;;;0.70;;
7969;SDS011;4030;52.362;9.206;2022-07-06T00:10:30;1.92;;;0.80;;
7969;SDS011;4030;52.362;9.206;2022-07-06T00:12:56;1.20;;;0.75;;
7969;SDS011;4030;52.362;9.206;2022-07-06T00:15:22;1.17;;;0.70;;
7969;SDS011;4030;52.362;9.206;2022-07-06T00:17:48;2.65;;;0.80;;
7969;SDS011;4030;52.362;9.206;2022-07-06T00:20:14;0.73;;;0.60;;
7969;SDS011;4030;52.362;9.206;2022-07-06T00:22:40;0.95;;;0.65;;
7969;SDS011;4030;52.362;9.206;2022-07-06T00:25:06;2.20;;;0.73;;
7969;SDS011;4030;52.362;9.206;2022-07-06T00:27:33;1.55;;;0.70;;
7969;SDS011;4030;52.362;9.206;2022-07-06T00:29:58;0.95;;;0.60;;
7969;SDS011;4030;52.362;9.206;2022-07-06T00:32:24;1.10;;;0.60;;
7969;SDS011;4030;52.362;9.206;2022-07-06T00:34:52;2.13;;;0.80;;
7969;SDS011;4030;52.362;9.206;2022-07-06T00:37:18;1.48;;;0.70;;
7969;SDS011;4030;52.362;9.206;2022-07-06T00:39:43;1.27;;;0.77;;
7969;SDS011;4030;52.362;9.206;2022-07-06T00:42:09;1.15;;;0.55;;
7969;SDS011;4030;52.362;9.206;2022-07-06T00:44:35;1.15;;;0.70;;
7969;SDS011;4030;52.362;9.206;2022-07-06T00:47:01;1.08;;;0.70;;
7969;SDS011;4030;52.362;9.206;2022-07-06T00:49:27;1.58;;;0.75;;
7969;SDS011;4030;52.362;9.206;2022-07-06T00:52:11;1.48;;;0.70;;
7969;SDS011;4030;52.362;9.206;2022-07-06T00:54:37;1.05;;;0.70;;
7969;SDS011;4030;52.362;9.206;2022-07-06T00:57:06;1.45;;;0.70;;
7969;SDS011;4030;52.362;9.206;2022-07-06T00:59:32;2.17;;;0.80;;
7969;SDS011;4030;52.362;9.206;2022-07-06T01:01:58;1.08;;;0.70;;
7969;SDS011;4030;52.362;9.206;2022-07-06T01:04:24;0.80;;;0.70;;
7969;SDS011;4030;52.362;9.206;2022-07-06T01:06:49;1.58;;;0.65;;
7969;SDS011;4030;52.362;9.206;2022-07-06T01:09:16;2.53;;;0.70;;
7969;SDS011;4030;52.362;9.206;2022-07-06T01:11:41;1.42;;;0.60;;
7969;SDS011;4030;52.362;9.206;2022-07-06T01:14:08;2.08;;;0.80;;
7969;SDS011;4030;52.362;9.206;2022-07-06T01:16:34;1.70;;;0.70;;
7969;SDS011;4030;52.362;9.206;2022-07-06T01:19:00;0.90;;;0.60;;
7969;SDS011;4030;52.362;9.206;2022-07-06T01:21:26;1.15;;;0.85;;
7969;SDS011;4030;52.362;9.206;2022-07-06T01:23:52;1.40;;;0.80;;
7969;SDS011;4030;52.362;9.206;2022-07-06T01:26:20;1.33;;;0.70;;
7969;SDS011;4030;52.362;9.206;2022-07-06T01:28:46;1.30;;;0.90;;
7969;SDS011;4030;52.362;9.206;2022-07-06T01:31:15;1.58;;;0.70;;
7969;SDS011;4030;52.362;9.206;2022-07-06T01:33:49;2.10;;;0.80;;
7969;SDS011;4030;52.362;9.206;2022-07-06T01:36:18;1.55;;;0.70;;
7969;SDS011;4030;52.362;9.206;2022-07-06T01:41:15;1.17;;;0.80;;
7969;SDS011;4030;52.362;9.206;2022-07-06T01:43:42;1.05;;;0.70;;
7969;SDS011;4030;52.362;9.206;2022-07-06T01:46:08;0.98;;;0.65;;
7969;SDS011;4030;52.362;9.206;2022-07-06T01:48:34;1.27;;;0.75;;
7969;SDS011;4030;52.362;9.206;2022-07-06T01:51:00;1.95;;;0.70;;
7969;SDS011;4030;52.362;9.206;2022-07-06T01:53:25;1.20;;;0.73;;
7969;SDS011;4030;52.362;9.206;2022-07-06T01:55:51;1.42;;;0.70;;
7969;SDS011;4030;52.362;9.206;2022-07-06T01:58:17;0.98;;;0.70;;
7969;SDS011;4030;52.362;9.206;2022-07-06T02:00:43;1.75;;;0.73;;
7969;SDS011;4030;52.362;9.206;2022-07-06T02:03:09;1.27;;;0.77;;
7969;SDS011;4030;52.362;9.206;2022-07-06T02:05:35;0.95;;;0.50;;
7969;SDS011;4030;52.362;9.206;2022-07-06T02:08:01;1.13;;;0.73;;
7969;SDS011;4030;52.362;9.206;2022-07-06T02:10:27;1.02;;;0.70;;
7969;SDS011;4030;52.362;9.206;2022-07-06T02:12:53;2.35;;;0.60;;
7969;SDS011;4030;52.362;9.206;2022-07-06T02:15:19;1.30;;;0.60;;
7969;SDS011;4030;52.362;9.206;2022-07-06T02:17:45;1.95;;;0.90;;
7969;SDS011;4030;52.362;9.206;2022-07-06T02:20:11;2.38;;;0.75;;
7969;SDS011;4030;52.362;9.206;2022-07-06T02:22:37;1.17;;;0.70;;
7969;SDS011;4030;52.362;9.206;2022-07-06T02:25:03;1.10;;;0.70;;
7969;SDS011;4030;52.362;9.206;2022-07-06T02:27:30;2.25;;;0.80;;
7969;SDS011;4030;52.362;9.206;2022-07-06T02:29:56;1.50;;;0.70;;
7969;SDS011;4030;52.362;9.206;2022-07-06T02:32:22;1.10;;;0.80;;
7969;SDS011;4030;52.362;9.206;2022-07-06T02:34:48;0.95;;;0.70;;
7969;SDS011;4030;52.362;9.206;2022-07-06T02:37:13;1.08;;;0.63;;
7969;SDS011;4030;52.362;9.206;2022-07-06T02:39:39;1.98;;;0.82;;
7969;SDS011;4030;52.362;9.206;2022-07-06T02:42:06;1.67;;;0.68;;
7969;SDS011;4030;52.362;9.206;2022-07-06T02:44:32;0.60;;;0.57;;
7969;SDS011;4030;52.362;9.206;2022-07-06T02:46:58;1.33;;;0.80;;
7969;SDS011;4030;52.362;9.206;2022-07-06T02:49:24;2.40;;;0.60;;
7969;SDS011;4030;52.362;9.206;2022-07-06T02:51:50;2.03;;;0.90;;
7969;SDS011;4030;52.362;9.206;2022-07-06T02:54:16;1.17;;;0.68;;
7969;SDS011;4030;52.362;9.206;2022-07-06T02:56:42;2.30;;;0.70;;
7969;SDS011;4030;52.362;9.206;2022-07-06T02:59:09;1.50;;;0.70;;
7969;SDS011;4030;52.362;9.206;2022-07-06T03:01:35;1.27;;;0.85;;
7969;SDS011;4030;52.362;9.206;2022-07-06T03:04:01;1.27;;;0.70;;
7969;SDS011;4030;52.362;9.206;2022-07-06T03:06:26;1.33;;;0.70;;
7969;SDS011;4030;52.362;9.206;2022-07-06T03:08:52;1.70;;;0.80;;
7969;SDS011;4030;52.362;9.206;2022-07-06T03:11:18;0.93;;;0.63;;
7969;SDS011;4030;52.362;9.206;2022-07-06T03:13:45;2.10;;;0.80;;
7969;SDS011;4030;52.362;9.206;2022-07-06T03:16:11;1.10;;;0.70;;
7969;SDS011;4030;52.362;9.206;2022-07-06T03:18:37;1.77;;;0.75;;
7969;SDS011;4030;52.362;9.206;2022-07-06T03:21:03;1.30;;;0.80;;
7969;SDS011;4030;52.362;9.206;2022-07-06T03:23:30;1.45;;;0.65;;
7969;SDS011;4030;52.362;9.206;2022-07-06T03:25:56;1.63;;;0.80;;
7969;SDS011;4030;52.362;9.206;2022-07-06T03:28:22;0.85;;;0.65;;
7969;SDS011;4030;52.362;9.206;2022-07-06T03:30:47;1.50;;;0.80;;
7969;SDS011;4030;52.362;9.206;2022-07-06T03:33:13;0.82;;;0.63;;
7969;SDS011;4030;52.362;9.206;2022-07-06T03:35:39;1.40;;;0.70;;
7969;SDS011;4030;52.362;9.206;2022-07-06T03:38:05;1.85;;;0.70;;
7969;SDS011;4030;52.362;9.206;2022-07-06T03:40:31;2.55;;;0.98;;
7969;SDS011;4030;52.362;9.206;2022-07-06T03:42:57;1.52;;;0.80;;
7969;SDS011;4030;52.362;9.206;2022-07-06T03:45:23;1.27;;;0.80;;
7969;SDS011;4030;52.362;9.206;2022-07-06T03:47:49;1.25;;;0.75;;
7969;SDS011;4030;52.362;9.206;2022-07-06T03:50:15;1.63;;;0.80;;
7969;SDS011;4030;52.362;9.206;2022-07-06T03:52:41;2.08;;;0.80;;
7969;SDS011;4030;52.362;9.206;2022-07-06T03:55:08;1.20;;;0.80;;
7969;SDS011;4030;52.362;9.206;2022-07-06T03:57:36;1.45;;;0.80;;
7969;SDS011;4030;52.362;9.206;2022-07-06T04:00:03;0.65;;;0.60;;
7969;SDS011;4030;52.362;9.206;2022-07-06T04:02:30;1.05;;;0.80;;
7969;SDS011;4030;52.362;9.206;2022-07-06T04:04:56;1.13;;;0.65;;
7969;SDS011;4030;52.362;9.206;2022-07-06T04:07:22;1.50;;;0.90;;
7969;SDS011;4030;52.362;9.206;2022-07-06T04:09:48;1.02;;;0.70;;
7969;SDS011;4030;52.362;9.206;2022-07-06T04:12:14;0.85;;;0.68;;
7969;SDS011;4030;52.362;9.206;2022-07-06T04:14:40;1.40;;;0.80;;
7969;SDS011;4030;52.362;9.206;2022-07-06T04:17:06;2.60;;;0.80;;
7969;SDS011;4030;52.362;9.206;2022-07-06T04:19:51;2.05;;;0.75;;
7969;SDS011;4030;52.362;9.206;2022-07-06T04:22:16;1.98;;;0.80;;
7969;SDS011;4030;52.362;9.206;2022-07-06T04:24:42;1.25;;;0.80;;
7969;SDS011;4030;52.362;9.206;2022-07-06T04:27:08;0.95;;;0.80;;
7969;SDS011;4030;52.362;9.206;2022-07-06T04:29:34;0.85;;;0.65;;
7969;SDS011;4030;52.362;9.206;2022-07-06T04:32:00;1.27;;;0.73;;
7969;SDS011;4030;52.362;9.206;2022-07-06T04:34:27;0.88;;;0.60;;
7969;SDS011;4030;52.362;9.206;2022-07-06T04:36:53;1.67;;;0.80;;
7969;SDS011;4030;52.362;9.206;2022-07-06T04:39:19;0.95;;;0.60;;
7969;SDS011;4030;52.362;9.206;2022-07-06T04:41:45;2.20;;;0.70;;
7969;SDS011;4030;52.362;9.206;2022-07-06T04:44:11;1.75;;;0.80;;
7969;SDS011;4030;52.362;9.206;2022-07-06T04:46:37;0.77;;;0.63;;
7969;SDS011;4030;52.362;9.206;2022-07-06T04:49:03;0.70;;;0.63;;
7969;SDS011;4030;52.362;9.206;2022-07-06T04:51:29;1.02;;;0.70;;
7969;SDS011;4030;52.362;9.206;2022-07-06T04:53:55;1.58;;;0.73;;
7969;SDS011;4030;52.362;9.206;2022-07-06T04:56:21;2.15;;;0.75;;
7969;SDS011;4030;52.362;9.206;2022-07-06T04:58:47;1.65;;;0.80;;
7969;SDS011;4030;52.362;9.206;2022-07-06T05:01:13;2.20;;;0.77;;
7969;SDS011;4030;52.362;9.206;2022-07-06T05:03:39;1.55;;;0.73;;
7969;SDS011;4030;52.362;9.206;2022-07-06T05:06:06;2.17;;;0.70;;
7969;SDS011;4030;52.362;9.206;2022-07-06T05:08:33;1.13;;;0.68;;
7969;SDS011;4030;52.362;9.206;2022-07-06T05:10:59;2.47;;;0.90;;
7969;SDS011;4030;52.362;9.206;2022-07-06T05:13:25;0.95;;;0.70;;
7969;SDS011;4030;52.362;9.206;2022-07-06T05:15:51;1.05;;;0.63;;
7969;SDS011;4030;52.362;9.206;2022-07-06T05:18:17;2.20;;;0.85;;
7969;SDS011;4030;52.362;9.206;2022-07-06T05:20:42;2.67;;;0.90;;
7969;SDS011;4030;52.362;9.206;2022-07-06T05:23:09;1.90;;;0.60;;
7969;SDS011;4030;52.362;9.206;2022-07-06T05:25:35;1.58;;;0.80;;
7969;SDS011;4030;52.362;9.206;2022-07-06T05:28:02;1.27;;;0.77;;
7969;SDS011;4030;52.362;9.206;2022-07-06T05:30:28;1.30;;;0.70;;
7969;SDS011;4030;52.362;9.206;2022-07-06T05:32:54;0.88;;;0.68;;
7969;SDS011;4030;52.362;9.206;2022-07-06T05:35:20;1.50;;;0.80;;
7969;SDS011;4030;52.362;9.206;2022-07-06T05:37:45;1.80;;;0.80;;
7969;SDS011;4030;52.362;9.206;2022-07-06T05:40:11;1.73;;;0.98;;
7969;SDS011;4030;52.362;9.206;2022-07-06T05:42:37;1.58;;;0.90;;
7969;SDS011;4030;52.362;9.206;2022-07-06T05:45:02;1.35;;;0.65;;
7969;SDS011;4030;52.362;9.206;2022-07-06T05:47:29;2.30;;;0.80;;
7969;SDS011;4030;52.362;9.206;2022-07-06T05:50:14;2.75;;;0.77;;
7969;SDS011;4030;52.362;9.206;2022-07-06T05:52:40;1.25;;;0.70;;
7969;SDS011;4030;52.362;9.206;2022-07-06T05:55:08;1.25;;;0.70;;
7969;SDS011;4030;52.362;9.206;2022-07-06T05:57:35;1.73;;;0.80;;
7969;SDS011;4030;52.362;9.206;2022-07-06T06:00:02;1.73;;;0.95;;
7969;SDS011;4030;52.362;9.206;2022-07-06T06:02:40;2.28;;;0.90;;
7969;SDS011;4030;52.362;9.206;2022-07-06T06:05:07;1.92;;;0.70;;
7969;SDS011;4030;52.362;9.206;2022-07-06T06:07:35;2.28;;;0.95;;
7969;SDS011;4030;52.362;9.206;2022-07-06T06:10:05;1.20;;;0.80;;
7969;SDS011;4030;52.362;9.206;2022-07-06T06:12:34;1.45;;;0.70;;
7969;SDS011;4030;52.362;9.206;2022-07-06T06:15:00;2.33;;;0.90;;
7969;SDS011;4030;52.362;9.206;2022-07-06T06:17:26;1.27;;;0.70;;
7969;SDS011;4030;52.362;9.206;2022-07-06T06:19:52;1.08;;;0.70;;
7969;SDS011;4030;52.362;9.206;2022-07-06T06:22:17;1.65;;;0.80;;
7969;SDS011;4030;52.362;9.206;2022-07-06T06:24:43;1.20;;;0.70;;
7969;SDS011;4030;52.362;9.206;2022-07-06T06:27:10;1.40;;;0.77;;
7969;SDS011;4030;52.362;9.206;2022-07-06T06:29:36;1.25;;;0.70;;
7969;SDS011;4030;52.362;9.206;2022-07-06T06:32:02;1.08;;;0.57;;
7969;SDS011;4030;52.362;9.206;2022-07-06T06:34:30;2.17;;;0.77;;
7969;SDS011;4030;52.362;9.206;2022-07-06T06:36:56;1.83;;;0.80;;
7969;SDS011;4030;52.362;9.206;2022-07-06T06:39:23;2.75;;;0.88;;
7969;SDS011;4030;52.362;9.206;2022-07-06T06:41:49;1.20;;;0.63;;
7969;SDS011;4030;52.362;9.206;2022-07-06T06:44:15;1.15;;;0.70;;
7969;SDS011;4030;52.362;9.206;2022-07-06T06:46:42;0.85;;;0.57;;
7969;SDS011;4030;52.362;9.206;2022-07-06T06:49:09;1.02;;;0.68;;
7969;SDS011;4030;52.362;9.206;2022-07-06T06:51:35;1.52;;;0.90;;
7969;SDS011;4030;52.362;9.206;2022-07-06T06:54:02;1.13;;;0.70;;
7969;SDS011;4030;52.362;9.206;2022-07-06T06:56:28;1.65;;;0.65;;
7969;SDS011;4030;52.362;9.206;2022-07-06T06:58:54;0.77;;;0.60;;
7969;SDS011;4030;52.362;9.206;2022-07-06T07:01:20;1.33;;;0.70;;
7969;SDS011;4030;52.362;9.206;2022-07-06T07:03:46;1.45;;;0.60;;
7969;SDS011;4030;52.362;9.206;2022-07-06T07:06:12;1.42;;;0.65;;
7969;SDS011;4030;52.362;9.206;2022-07-06T07:08:38;2.20;;;0.80;;
7969;SDS011;4030;52.362;9.206;2022-07-06T07:11:03;1.55;;;0.77;;
7969;SDS011;4030;52.362;9.206;2022-07-06T07:13:29;1.65;;;0.70;;
7969;SDS011;4030;52.362;9.206;2022-07-06T07:15:55;3.65;;;1.05;;
7969;SDS011;4030;52.362;9.206;2022-07-06T07:18:21;1.55;;;0.68;;
7969;SDS011;4030;52.362;9.206;2022-07-06T07:20:47;1.83;;;0.85;;
7969;SDS011;4030;52.362;9.206;2022-07-06T07:23:13;2.72;;;0.80;;
7969;SDS011;4030;52.362;9.206;2022-07-06T07:25:39;2.00;;;0.95;;
7969;SDS011;4030;52.362;9.206;2022-07-06T07:28:05;2.55;;;0.80;;
7969;SDS011;4030;52.362;9.206;2022-07-06T07:30:31;2.17;;;1.10;;
7969;SDS011;4030;52.362;9.206;2022-07-06T07:32:57;1.67;;;0.63;;
7969;SDS011;4030;52.362;9.206;2022-07-06T07:35:25;1.45;;;0.68;;
7969;SDS011;4030;52.362;9.206;2022-07-06T07:37:52;1.83;;;0.75;;
7969;SDS011;4030;52.362;9.206;2022-07-06T07:40:18;1.95;;;0.75;;
7969;SDS011;4030;52.362;9.206;2022-07-06T07:42:44;1.70;;;0.80;;
7969;SDS011;4030;52.362;9.206;2022-07-06T07:45:10;1.77;;;0.70;;
7969;SDS011;4030;52.362;9.206;2022-07-06T07:47:37;1.00;;;0.60;;
7969;SDS011;4030;52.362;9.206;2022-07-06T07:50:03;1.95;;;0.65;;
7969;SDS011;4030;52.362;9.206;2022-07-06T07:52:30;0.82;;;0.60;;
7969;SDS011;4030;52.362;9.206;2022-07-06T07:54:56;1.27;;;0.50;;
7969;SDS011;4030;52.362;9.206;2022-07-06T07:57:22;1.50;;;0.70;;
7969;SDS011;4030;52.362;9.206;2022-07-06T07:59:48;2.00;;;0.70;;
7969;SDS011;4030;52.362;9.206;2022-07-06T08:02:14;1.08;;;0.60;;
7969;SDS011;4030;52.362;9.206;2022-07-06T08:04:40;1.58;;;0.68;;
7969;SDS011;4030;52.362;9.206;2022-07-06T08:07:06;0.68;;;0.40;;
7969;SDS011;4030;52.362;9.206;2022-07-06T08:09:33;2.05;;;0.60;;
7969;SDS011;4030;52.362;9.206;2022-07-06T08:11:59;1.73;;;0.60;;
7969;SDS011;4030;52.362;9.206;2022-07-06T08:14:25;1.70;;;0.50;;
7969;SDS011;4030;52.362;9.206;2022-07-06T08:16:51;2.38;;;0.63;;
7969;SDS011;4030;52.362;9.206;2022-07-06T08:19:17;2.20;;;0.60;;
7969;SDS011;4030;52.362;9.206;2022-07-06T08:21:42;1.77;;;0.75;;
7969;SDS011;4030;52.362;9.206;2022-07-06T08:24:09;1.02;;;0.52;;
7969;SDS011;4030;52.362;9.206;2022-07-06T08:26:35;2.03;;;0.70;;
7969;SDS011;4030;52.362;9.206;2022-07-06T08:29:01;2.35;;;0.70;;
7969;SDS011;4030;52.362;9.206;2022-07-06T08:31:28;1.77;;;0.70;;
7969;SDS011;4030;52.362;9.206;2022-07-06T08:33:54;2.33;;;0.80;;
7969;SDS011;4030;52.362;9.206;2022-07-06T08:36:20;2.05;;;0.77;;
7969;SDS011;4030;52.362;9.206;2022-07-06T08:38:46;1.02;;;0.63;;
7969;SDS011;4030;52.362;9.206;2022-07-06T08:41:14;1.00;;;0.68;;
7969;SDS011;4030;52.362;9.206;2022-07-06T08:43:41;2.13;;;0.70;;
7969;SDS011;4030;52.362;9.206;2022-07-06T08:46:07;1.08;;;0.60;;
7969;SDS011;4030;52.362;9.206;2022-07-06T08:48:36;1.73;;;0.70;;
7969;SDS011;4030;52.362;9.206;2022-07-06T08:51:04;3.00;;;0.80;;
7969;SDS011;4030;52.362;9.206;2022-07-06T08:53:30;1.15;;;0.60;;
7969;SDS011;4030;52.362;9.206;2022-07-06T08:55:56;1.25;;;0.73;;
7969;SDS011;4030;52.362;9.206;2022-07-06T08:58:26;1.70;;;0.60;;
7969;SDS011;4030;52.362;9.206;2022-07-06T09:00:54;1.15;;;0.60;;
7969;SDS011;4030;52.362;9.206;2022-07-06T09:03:20;1.55;;;0.57;;
7969;SDS011;4030;52.362;9.206;2022-07-06T09:05:46;3.10;;;0.77;;
7969;SDS011;4030;52.362;9.206;2022-07-06T09:08:13;1.17;;;0.40;;
7969;SDS011;4030;52.362;9.206;2022-07-06T09:10:39;0.82;;;0.50;;
7969;SDS011;4030;52.362;9.206;2022-07-06T09:13:05;0.68;;;0.45;;
7969;SDS011;4030;52.362;9.206;2022-07-06T09:15:34;1.67;;;0.50;;
7969;SDS011;4030;52.362;9.206;2022-07-06T09:18:03;1.02;;;0.55;;
7969;SDS011;4030;52.362;9.206;2022-07-06T09:20:30;1.15;;;0.55;;
7969;SDS011;4030;52.362;9.206;2022-07-06T09:22:59;1.88;;;0.50;;
7969;SDS011;4030;52.362;9.206;2022-07-06T09:25:29;1.38;;;0.50;;
7969;SDS011;4030;52.362;9.206;2022-07-06T09:27:56;3.38;;;0.60;;
7969;SDS011;4030;52.362;9.206;2022-07-06T09:30:24;1.63;;;0.65;;
7969;SDS011;4030;52.362;9.206;2022-07-06T09:32:53;1.60;;;0.40;;
7969;SDS011;4030;52.362;9.206;2022-07-06T09:35:28;1.40;;;0.52;;
7969;SDS011;4030;52.362;9.206;2022-07-06T09:40:40;1.08;;;0.50;;
7969;SDS011;4030;52.362;9.206;2022-07-06T09:43:15;1.83;;;0.70;;
7969;SDS011;4030;52.362;9.206;2022-07-06T09:45:50;1.30;;;0.50;;
7969;SDS011;4030;52.362;9.206;2022-07-06T09:48:19;1.48;;;0.50;;
7969;SDS011;4030;52.362;9.206;2022-07-06T09:50:48;2.20;;;0.60;;
7969;SDS011;4030;52.362;9.206;2022-07-06T09:53:20;1.75;;;0.65;;
7969;SDS011;4030;52.362;9.206;2022-07-06T09:55:53;2.05;;;0.50;;
7969;SDS011;4030;52.362;9.206;2022-07-06T09:58:20;1.02;;;0.50;;
7969;SDS011;4030;52.362;9.206;2022-07-06T10:00:47;1.05;;;0.50;;
7969;SDS011;4030;52.362;9.206;2022-07-06T10:03:15;1.25;;;0.60;;
7969;SDS011;4030;52.362;9.206;2022-07-06T10:05:43;0.70;;;0.45;;
7969;SDS011;4030;52.362;9.206;2022-07-06T10:08:15;1.27;;;0.60;;
7969;SDS011;4030;52.362;9.206;2022-07-06T10:10:42;1.10;;;0.60;;
7969;SDS011;4030;52.362;9.206;2022-07-06T10:13:09;0.77;;;0.52;;
7969;SDS011;4030;52.362;9.206;2022-07-06T10:15:36;2.85;;;0.50;;
7969;SDS011;4030;52.362;9.206;2022-07-06T10:18:05;2.25;;;0.80;;
7969;SDS011;4030;52.362;9.206;2022-07-06T10:20:35;2.92;;;0.50;;
7969;SDS011;4030;52.362;9.206;2022-07-06T10:23:04;3.78;;;0.57;;
7969;SDS011;4030;52.362;9.206;2022-07-06T10:25:32;2.15;;;0.57;;
7969;SDS011;4030;52.362;9.206;2022-07-06T10:28:00;1.63;;;0.60;;
7969;SDS011;4030;52.362;9.206;2022-07-06T10:30:27;4.43;;;0.60;;
7969;SDS011;4030;52.362;9.206;2022-07-06T10:32:54;1.75;;;0.43;;
7969;SDS011;4030;52.362;9.206;2022-07-06T10:35:23;1.05;;;0.50;;
7969;SDS011;4030;52.362;9.206;2022-07-06T10:40:31;1.02;;;0.40;;
7969;SDS011;4030;52.362;9.206;2022-07-06T10:43:30;1.35;;;0.55;;
7969;SDS011;4030;52.362;9.206;2022-07-06T10:46:07;0.70;;;0.50;;
7969;SDS011;4030;52.362;9.206;2022-07-06T10:48:44;1.02;;;0.63;;
7969;SDS011;4030;52.362;9.206;2022-07-06T10:51:14;0.85;;;0.30;;
7969;SDS011;4030;52.362;9.206;2022-07-06T10:53:55;2.17;;;0.60;;
7969;SDS011;4030;52.362;9.206;2022-07-06T10:56:36;1.20;;;0.47;;
7969;SDS011;4030;52.362;9.206;2022-07-06T10:59:09;1.02;;;0.50;;
7969;SDS011;4030;52.362;9.206;2022-07-06T11:01:38;0.80;;;0.50;;
7969;SDS011;4030;52.362;9.206;2022-07-06T11:04:05;0.80;;;0.40;;
7969;SDS011;4030;52.362;9.206;2022-07-06T11:06:34;1.27;;;0.52;;
7969;SDS011;4030;52.362;9.206;2022-07-06T11:09:11;2.22;;;0.50;;
7969;SDS011;4030;52.362;9.206;2022-07-06T11:11:40;2.00;;;0.40;;
7969;SDS011;4030;52.362;9.206;2022-07-06T11:19:14;1.75;;;0.57;;
7969;SDS011;4030;52.362;9.206;2022-07-06T11:24:32;1.13;;;0.50;;
7969;SDS011;4030;52.362;9.206;2022-07-06T11:27:00;0.68;;;0.43;;
7969;SDS011;4030;52.362;9.206;2022-07-06T11:29:28;1.20;;;0.47;;
7969;SDS011;4030;52.362;9.206;2022-07-06T11:31:58;0.50;;;0.40;;
7969;SDS011;4030;52.362;9.206;2022-07-06T11:34:32;2.25;;;0.40;;
7969;SDS011;4030;52.362;9.206;2022-07-06T11:37:01;1.75;;;0.38;;
7969;SDS011;4030;52.362;9.206;2022-07-06T11:39:33;2.03;;;0.50;;
7969;SDS011;4030;52.362;9.206;2022-07-06T11:42:01;2.20;;;0.50;;
7969;SDS011;4030;52.362;9.206;2022-07-06T11:44:31;1.85;;;0.50;;
7969;SDS011;4030;52.362;9.206;2022-07-06T11:46:58;1.92;;;0.50;;
7969;SDS011;4030;52.362;9.206;2022-07-06T11:49:27;1.88;;;0.40;;
7969;SDS011;4030;52.362;9.206;2022-07-06T11:51:53;2.25;;;0.55;;
7969;SDS011;4030;52.362;9.206;2022-07-06T11:54:21;4.00;;;0.60;;
7969;SDS011;4030;52.362;9.206;2022-07-06T11:56:57;3.28;;;0.60;;
7969;SDS011;4030;52.362;9.206;2022-07-06T11:59:26;1.58;;;0.40;;
7969;SDS011;4030;52.362;9.206;2022-07-06T12:01:57;1.75;;;0.50;;
7969;SDS011;4030;52.362;9.206;2022-07-06T12:04:29;1.27;;;0.50;;
7969;SDS011;4030;52.362;9.206;2022-07-06T12:06:59;0.55;;;0.40;;
7969;SDS011;4030;52.362;9.206;2022-07-06T12:09:30;1.08;;;0.40;;
7969;SDS011;4030;52.362;9.206;2022-07-06T12:12:01;0.35;;;0.35;;
7969;SDS011;4030;52.362;9.206;2022-07-06T12:14:32;1.88;;;0.60;;
7969;SDS011;4030;52.362;9.206;2022-07-06T12:17:03;3.53;;;0.52;;
7969;SDS011;4030;52.362;9.206;2022-07-06T12:19:34;2.70;;;0.60;;
7969;SDS011;4030;52.362;9.206;2022-07-06T12:22:01;0.85;;;0.50;;
7969;SDS011;4030;52.362;9.206;2022-07-06T12:24:28;1.52;;;0.60;;
7969;SDS011;4030;52.362;9.206;2022-07-06T12:26:58;1.13;;;0.50;;
7969;SDS011;4030;52.362;9.206;2022-07-06T12:29:42;0.77;;;0.45;;
7969;SDS011;4030;52.362;9.206;2022-07-06T12:32:19;1.83;;;0.57;;
7969;SDS011;4030;52.362;9.206;2022-07-06T12:35:07;0.57;;;0.38;;
7969;SDS011;4030;52.362;9.206;2022-07-06T12:37:36;1.40;;;0.30;;
7969;SDS011;4030;52.362;9.206;2022-07-06T12:40:02;0.75;;;0.32;;
7969;SDS011;4030;52.362;9.206;2022-07-06T12:42:47;0.50;;;0.40;;
7969;SDS011;4030;52.362;9.206;2022-07-06T12:45:12;0.52;;;0.30;;
7969;SDS011;4030;52.362;9.206;2022-07-06T12:47:38;2.42;;;0.60;;
7969;SDS011;4030;52.362;9.206;2022-07-06T12:50:09;1.38;;;0.50;;
7969;SDS011;4030;52.362;9.206;2022-07-06T12:52:36;1.30;;;0.50;;
7969;SDS011;4030;52.362;9.206;2022-07-06T12:55:03;2.05;;;0.70;;
7969;SDS011;4030;52.362;9.206;2022-07-06T12:57:42;1.17;;;0.50;;
7969;SDS011;4030;52.362;9.206;2022-07-06T13:00:12;1.38;;;0.50;;
7969;SDS011;4030;52.362;9.206;2022-07-06T13:02:43;1.40;;;0.40;;
7969;SDS011;4030;52.362;9.206;2022-07-06T13:05:13;0.63;;;0.40;;
7969;SDS011;4030;52.362;9.206;2022-07-06T13:07:47;1.15;;;0.40;;
7969;SDS011;4030;52.362;9.206;2022-07-06T13:10:14;1.40;;;0.50;;
7969;SDS011;4030;52.362;9.206;2022-07-06T13:12:41;1.45;;;0.50;;
7969;SDS011;4030;52.362;9.206;2022-07-06T13:15:07;1.63;;;0.40;;
7969;SDS011;4030;52.362;9.206;2022-07-06T13:17:34;1.10;;;0.50;;
7969;SDS011;4030;52.362;9.206;2022-07-06T13:20:02;0.90;;;0.50;;
7969;SDS011;4030;52.362;9.206;2022-07-06T13:22:29;1.35;;;0.63;;
7969;SDS011;4030;52.362;9.206;2022-07-06T13:24:54;1.30;;;0.70;;
7969;SDS011;4030;52.362;9.206;2022-07-06T13:27:20;2.75;;;0.50;;
7969;SDS011;4030;52.362;9.206;2022-07-06T13:29:46;1.85;;;0.50;;
7969;SDS011;4030;52.362;9.206;2022-07-06T13:32:11;1.33;;;0.40;;
7969;SDS011;4030;52.362;9.206;2022-07-06T13:34:37;1.45;;;0.40;;
7969;SDS011;4030;52.362;9.206;2022-07-06T13:37:03;2.50;;;0.50;;
7969;SDS011;4030;52.362;9.206;2022-07-06T13:39:30;0.82;;;0.40;;
7969;SDS011;4030;52.362;9.206;2022-07-06T13:41:57;0.28;;;0.28;;
7969;SDS011;4030;52.362;9.206;2022-07-06T13:44:22;0.80;;;0.40;;
7969;SDS011;4030;52.362;9.206;2022-07-06T13:46:49;1.77;;;0.30;;
7969;SDS011;4030;52.362;9.206;2022-07-06T13:49:15;2.50;;;0.45;;
7969;SDS011;4030;52.362;9.206;2022-07-06T13:51:41;1.23;;;0.40;;
7969;SDS011;4030;52.362;9.206;2022-07-06T13:54:07;0.40;;;0.38;;
7969;SDS011;4030;52.362;9.206;2022-07-06T13:56:34;1.25;;;0.40;;
7969;SDS011;4030;52.362;9.206;2022-07-06T13:58:59;1.27;;;0.40;;
7969;SDS011;4030;52.362;9.206;2022-07-06T14:01:25;1.20;;;0.40;;
7969;SDS011;4030;52.362;9.206;2022-07-06T14:03:51;2.25;;;0.50;;
7969;SDS011;4030;52.362;9.206;2022-07-06T14:06:18;0.90;;;0.35;;
7969;SDS011;4030;52.362;9.206;2022-07-06T14:08:44;1.73;;;0.60;;
7969;SDS011;4030;52.362;9.206;2022-07-06T14:11:11;0.50;;;0.40;;
7969;SDS011;4030;52.362;9.206;2022-07-06T14:13:37;2.05;;;0.60;;
7969;SDS011;4030;52.362;9.206;2022-07-06T14:16:04;2.88;;;0.45;;
7969;SDS011;4030;52.362;9.206;2022-07-06T14:18:30;0.30;;;0.30;;
7969;SDS011;4030;52.362;9.206;2022-07-06T14:20:56;1.45;;;0.40;;
7969;SDS011;4030;52.362;9.206;2022-07-06T14:23:22;4.40;;;0.50;;
7969;SDS011;4030;52.362;9.206;2022-07-06T14:25:49;0.22;;;0.22;;
7969;SDS011;4030;52.362;9.206;2022-07-06T14:28:15;1.02;;;0.40;;
7969;SDS011;4030;52.362;9.206;2022-07-06T14:30:44;1.48;;;0.47;;
7969;SDS011;4030;52.362;9.206;2022-07-06T14:33:12;0.80;;;0.30;;
7969;SDS011;4030;52.362;9.206;2022-07-06T14:35:40;1.55;;;0.40;;
7969;SDS011;4030;52.362;9.206;2022-07-06T14:38:08;0.43;;;0.30;;
7969;SDS011;4030;52.362;9.206;2022-07-06T14:40:36;0.60;;;0.30;;
7969;SDS011;4030;52.362;9.206;2022-07-06T14:43:02;1.23;;;0.38;;
7969;SDS011;4030;52.362;9.206;2022-07-06T14:45:29;1.83;;;0.30;;
7969;SDS011;4030;52.362;9.206;2022-07-06T14:47:55;0.77;;;0.28;;
7969;SDS011;4030;52.362;9.206;2022-07-06T14:50:21;0.95;;;0.40;;
7969;SDS011;4030;52.362;9.206;2022-07-06T14:52:50;1.05;;;0.40;;
7969;SDS011;4030;52.362;9.206;2022-07-06T14:55:17;1.02;;;0.40;;
7969;SDS011;4030;52.362;9.206;2022-07-06T14:57:43;1.73;;;0.40;;
7969;SDS011;4030;52.362;9.206;2022-07-06T15:00:09;0.80;;;0.30;;
7969;SDS011;4030;52.362;9.206;2022-07-06T15:02:35;1.70;;;0.52;;
7969;SDS011;4030;52.362;9.206;2022-07-06T15:05:01;0.65;;;0.30;;
7969;SDS011;4030;52.362;9.206;2022-07-06T15:07:27;2.00;;;0.50;;
7969;SDS011;4030;52.362;9.206;2022-07-06T15:09:54;0.80;;;0.40;;
7969;SDS011;4030;52.362;9.206;2022-07-06T15:12:21;1.85;;;0.52;;
7969;SDS011;4030;52.362;9.206;2022-07-06T15:14:46;1.48;;;0.30;;
7969;SDS011;4030;52.362;9.206;2022-07-06T15:17:12;1.42;;;0.50;;
7969;SDS011;4030;52.362;9.206;2022-07-06T15:19:38;1.77;;;0.50;;
7969;SDS011;4030;52.362;9.206;2022-07-06T15:22:04;1.33;;;0.30;;
7969;SDS011;4030;52.362;9.206;2022-07-06T15:24:29;3.05;;;0.57;;
7969;SDS011;4030;52.362;9.206;2022-07-06T15:26:55;1.27;;;0.40;;
7969;SDS011;4030;52.362;9.206;2022-07-06T15:29:21;1.05;;;0.50;;
7969;SDS011;4030;52.362;9.206;2022-07-06T15:31:46;1.08;;;0.50;;